Terminal Aerodrome Forecast
Issued by NWS El Paso, TX

Home | Current Version | Previous Version | Text Only | Print | Product List | Glossary On
Versions: 1 2 3 4 5 6 7 8 9 10 11 12 13 14
000
FTUS44 KEPZ 241134
TAFELP
TAF
KELP 241134Z 2412/2512 15005KT P6SM SKC
     FM242000 22015G25KT P6SM FEW250
     FM250300 26011KT P6SM FEW250=

USA.gov is the U.S. government's official web portal to all federal, state and local government web resources and services.